sensor_id;sensor_type;location;lat;lon;timestamp;pressure;altitude;pressure_sealevel;temperature;humidity
3796;BME280;1913;50.660;7.834;2023-04-28T00:01:24;96999.53;;;10.63;75.46
3796;BME280;1913;50.660;7.834;2023-04-28T00:03:49;96992.66;;;10.62;74.55
3796;BME280;1913;50.660;7.834;2023-04-28T00:06:14;96989.22;;;10.61;73.66
3796;BME280;1913;50.660;7.834;2023-04-28T00:08:40;96984.59;;;10.57;76.23
3796;BME280;1913;50.660;7.834;2023-04-28T00:11:12;96978.34;;;10.58;74.83
3796;BME280;1913;50.660;7.834;2023-04-28T00:13:38;96964.00;;;10.53;74.94
3796;BME280;1913;50.660;7.834;2023-04-28T00:16:03;96970.25;;;10.52;77.19
3796;BME280;1913;50.660;7.834;2023-04-28T00:18:29;96967.44;;;10.54;75.01
3796;BME280;1913;50.660;7.834;2023-04-28T00:20:55;96966.78;;;10.59;77.93
3796;BME280;1913;50.660;7.834;2023-04-28T00:23:20;96967.03;;;10.50;78.11
3796;BME280;1913;50.660;7.834;2023-04-28T00:25:53;96961.56;;;10.52;78.19
3796;BME280;1913;50.660;7.834;2023-04-28T00:28:19;96950.66;;;10.48;78.51
3796;BME280;1913;50.660;7.834;2023-04-28T00:30:45;96962.41;;;10.46;81.47
3796;BME280;1913;50.660;7.834;2023-04-28T00:33:11;96954.09;;;10.49;80.02
3796;BME280;1913;50.660;7.834;2023-04-28T00:35:37;96947.44;;;10.46;80.47
3796;BME280;1913;50.660;7.834;2023-04-28T00:38:03;96954.09;;;10.42;80.00
3796;BME280;1913;50.660;7.834;2023-04-28T00:40:35;96946.84;;;10.44;78.07
3796;BME280;1913;50.660;7.834;2023-04-28T00:43:01;96941.56;;;10.51;79.61
3796;BME280;1913;50.660;7.834;2023-04-28T00:45:27;96932.06;;;10.50;79.36
3796;BME280;1913;50.660;7.834;2023-04-28T00:47:52;96937.75;;;10.47;81.23
3796;BME280;1913;50.660;7.834;2023-04-28T00:50:18;96937.13;;;10.45;84.46
3796;BME280;1913;50.660;7.834;2023-04-28T00:52:44;96930.69;;;10.34;85.00
3796;BME280;1913;50.660;7.834;2023-04-28T00:55:13;96941.22;;;10.27;87.24
3796;BME280;1913;50.660;7.834;2023-04-28T00:57:40;96924.47;;;10.28;90.39
3796;BME280;1913;50.660;7.834;2023-04-28T01:00:06;96935.94;;;10.21;91.83
3796;BME280;1913;50.660;7.834;2023-04-28T01:02:32;96925.91;;;10.11;96.74
3796;BME280;1913;50.660;7.834;2023-04-28T01:04:58;96925.28;;;9.96;100.00
3796;BME280;1913;50.660;7.834;2023-04-28T01:07:24;96927.75;;;9.84;100.00
3796;BME280;1913;50.660;7.834;2023-04-28T01:09:49;96924.72;;;9.74;100.00
3796;BME280;1913;50.660;7.834;2023-04-28T01:12:15;96921.69;;;9.70;100.00
3796;BME280;1913;50.660;7.834;2023-04-28T01:14:41;96917.06;;;9.66;100.00
3796;BME280;1913;50.660;7.834;2023-04-28T01:17:07;96919.28;;;9.69;100.00
3796;BME280;1913;50.660;7.834;2023-04-28T01:19:32;96922.31;;;9.79;100.00
3796;BME280;1913;50.660;7.834;2023-04-28T01:21:58;96918.84;;;9.85;100.00
3796;BME280;1913;50.660;7.834;2023-04-28T01:24:23;96911.59;;;9.87;100.00
3796;BME280;1913;50.660;7.834;2023-04-28T01:26:49;96923.50;;;9.96;100.00
3796;BME280;1913;50.660;7.834;2023-04-28T01:29:14;96915.22;;;9.93;100.00
3796;BME280;1913;50.660;7.834;2023-04-28T01:31:40;96911.78;;;9.92;100.00
3796;BME280;1913;50.660;7.834;2023-04-28T01:34:05;96909.16;;;9.92;100.00
3796;BME280;1913;50.660;7.834;2023-04-28T01:36:31;96906.34;;;9.94;100.00
3796;BME280;1913;50.660;7.834;2023-04-28T01:38:57;96897.03;;;9.91;100.00
3796;BME280;1913;50.660;7.834;2023-04-28T01:41:22;96889.41;;;9.83;100.00
3796;BME280;1913;50.660;7.834;2023-04-28T01:43:48;96876.28;;;9.76;100.00
3796;BME280;1913;50.660;7.834;2023-04-28T01:46:13;96877.31;;;9.69;100.00
3796;BME280;1913;50.660;7.834;2023-04-28T01:48:39;96883.19;;;9.64;100.00
3796;BME280;1913;50.660;7.834;2023-04-28T01:51:04;96880.34;;;9.59;100.00
3796;BME280;1913;50.660;7.834;2023-04-28T01:53:30;96870.47;;;9.54;100.00
3796;BME280;1913;50.660;7.834;2023-04-28T01:55:55;96868.44;;;9.56;100.00
3796;BME280;1913;50.660;7.834;2023-04-28T01:58:22;96864.81;;;9.57;100.00
3796;BME280;1913;50.660;7.834;2023-04-28T02:00:48;96857.34;;;9.61;100.00
3796;BME280;1913;50.660;7.834;2023-04-28T02:03:13;96862.38;;;9.69;100.00
3796;BME280;1913;50.660;7.834;2023-04-28T02:05:39;96870.22;;;9.76;100.00
3796;BME280;1913;50.660;7.834;2023-04-28T02:08:04;96863.56;;;9.87;100.00
3796;BME280;1913;50.660;7.834;2023-04-28T02:10:30;96857.28;;;9.88;100.00
3796;BME280;1913;50.660;7.834;2023-04-28T02:12:55;96864.94;;;9.96;100.00
3796;BME280;1913;50.660;7.834;2023-04-28T02:15:20;96850.97;;;10.02;100.00
3796;BME280;1913;50.660;7.834;2023-04-28T02:17:46;96858.06;;;10.01;100.00
3796;BME280;1913;50.660;7.834;2023-04-28T02:20:12;96861.88;;;10.05;100.00
3796;BME280;1913;50.660;7.834;2023-04-28T02:22:39;96864.66;;;10.17;100.00
3796;BME280;1913;50.660;7.834;2023-04-28T02:25:05;96870.13;;;10.16;100.00
3796;BME280;1913;50.660;7.834;2023-04-28T02:27:31;96887.88;;;10.27;100.00
3796;BME280;1913;50.660;7.834;2023-04-28T02:29:56;96883.81;;;10.24;100.00
3796;BME280;1913;50.660;7.834;2023-04-28T02:32:21;96883.44;;;10.27;100.00
3796;BME280;1913;50.660;7.834;2023-04-28T02:34:52;96873.53;;;10.23;100.00
3796;BME280;1913;50.660;7.834;2023-04-28T02:37:17;96863.44;;;10.20;100.00
3796;BME280;1913;50.660;7.834;2023-04-28T02:39:43;96875.00;;;10.12;100.00
3796;BME280;1913;50.660;7.834;2023-04-28T02:42:08;96870.56;;;10.06;100.00
3796;BME280;1913;50.660;7.834;2023-04-28T02:44:33;96871.34;;;10.06;100.00
3796;BME280;1913;50.660;7.834;2023-04-28T02:46:59;96875.63;;;10.01;100.00
3796;BME280;1913;50.660;7.834;2023-04-28T02:49:25;96864.91;;;10.02;100.00
3796;BME280;1913;50.660;7.834;2023-04-28T02:51:51;96867.78;;;9.81;100.00
3796;BME280;1913;50.660;7.834;2023-04-28T02:54:16;96860.38;;;9.65;100.00
3796;BME280;1913;50.660;7.834;2023-04-28T02:56:51;96855.34;;;9.50;100.00
3796;BME280;1913;50.660;7.834;2023-04-28T02:59:16;96853.31;;;9.32;100.00
3796;BME280;1913;50.660;7.834;2023-04-28T03:01:42;96862.81;;;9.20;100.00
3796;BME280;1913;50.660;7.834;2023-04-28T03:04:07;96852.50;;;9.05;100.00
3796;BME280;1913;50.660;7.834;2023-04-28T03:06:32;96853.28;;;8.92;100.00
3796;BME280;1913;50.660;7.834;2023-04-28T03:08:58;96849.84;;;8.85;100.00
3796;BME280;1913;50.660;7.834;2023-04-28T03:11:23;96851.47;;;8.79;100.00
3796;BME280;1913;50.660;7.834;2023-04-28T03:13:49;96850.66;;;8.72;100.00
3796;BME280;1913;50.660;7.834;2023-04-28T03:16:14;96840.16;;;8.66;100.00
3796;BME280;1913;50.660;7.834;2023-04-28T03:18:39;96837.31;;;8.60;100.00
3796;BME280;1913;50.660;7.834;2023-04-28T03:21:05;96834.28;;;8.57;100.00
3796;BME280;1913;50.660;7.834;2023-04-28T03:23:30;96837.31;;;8.60;100.00
3796;BME280;1913;50.660;7.834;2023-04-28T03:25:56;96831.06;;;8.48;100.00
3796;BME280;1913;50.660;7.834;2023-04-28T03:28:21;96823.00;;;8.50;100.00
3796;BME280;1913;50.660;7.834;2023-04-28T03:30:46;96825.41;;;8.45;100.00
3796;BME280;1913;50.660;7.834;2023-04-28T03:33:12;96830.84;;;8.43;100.00
3796;BME280;1913;50.660;7.834;2023-04-28T03:35:37;96808.66;;;8.39;100.00
3796;BME280;1913;50.660;7.834;2023-04-28T03:38:03;96806.03;;;8.39;100.00
3796;BME280;1913;50.660;7.834;2023-04-28T03:40:29;96807.69;;;8.40;100.00
3796;BME280;1913;50.660;7.834;2023-04-28T03:42:55;96806.88;;;8.46;100.00
3796;BME280;1913;50.660;7.834;2023-04-28T03:45:20;96802.03;;;8.50;100.00
3796;BME280;1913;50.660;7.834;2023-04-28T03:47:45;96799.84;;;8.47;100.00
3796;BME280;1913;50.660;7.834;2023-04-28T03:50:11;96791.97;;;8.47;100.00
3796;BME280;1913;50.660;7.834;2023-04-28T03:52:36;96798.81;;;8.48;100.00
3796;BME280;1913;50.660;7.834;2023-04-28T03:55:03;96789.16;;;8.48;100.00
3796;BME280;1913;50.660;7.834;2023-04-28T03:57:28;96788.38;;;8.54;100.00
3796;BME280;1913;50.660;7.834;2023-04-28T03:59:53;96791.19;;;8.59;100.00
3796;BME280;1913;50.660;7.834;2023-04-28T04:02:19;96800.66;;;8.60;100.00
3796;BME280;1913;50.660;7.834;2023-04-28T04:04:44;96799.66;;;8.61;100.00
3796;BME280;1913;50.660;7.834;2023-04-28T04:07:10;96801.47;;;8.61;100.00
3796;BME280;1913;50.660;7.834;2023-04-28T04:09:35;96794.00;;;8.58;100.00
3796;BME280;1913;50.660;7.834;2023-04-28T04:12:01;96798.63;;;8.56;100.00
3796;BME280;1913;50.660;7.834;2023-04-28T04:14:26;96803.84;;;8.49;100.00
3796;BME280;1913;50.660;7.834;2023-04-28T04:16:52;96803.88;;;8.56;100.00
3796;BME280;1913;50.660;7.834;2023-04-28T04:19:19;96790.38;;;8.59;100.00
3796;BME280;1913;50.660;7.834;2023-04-28T04:21:45;96789.19;;;8.61;100.00
3796;BME280;1913;50.660;7.834;2023-04-28T04:24:10;96790.00;;;8.62;100.00
3796;BME280;1913;50.660;7.834;2023-04-28T04:26:36;96788.53;;;8.53;100.00
3796;BME280;1913;50.660;7.834;2023-04-28T04:29:02;96792.81;;;8.54;100.00
3796;BME280;1913;50.660;7.834;2023-04-28T04:31:27;96789.94;;;8.42;100.00
3796;BME280;1913;50.660;7.834;2023-04-28T04:33:52;96787.53;;;8.41;100.00
3796;BME280;1913;50.660;7.834;2023-04-28T04:36:18;96778.06;;;8.39;100.00
3796;BME280;1913;50.660;7.834;2023-04-28T04:38:43;96780.88;;;8.38;100.00
3796;BME280;1913;50.660;7.834;2023-04-28T04:41:09;96768.94;;;8.35;100.00
3796;BME280;1913;50.660;7.834;2023-04-28T04:43:34;96767.31;;;8.28;100.00
3796;BME280;1913;50.660;7.834;2023-04-28T04:46:00;96763.28;;;8.25;100.00
3796;BME280;1913;50.660;7.834;2023-04-28T04:48:25;96758.06;;;8.19;100.00
3796;BME280;1913;50.660;7.834;2023-04-28T04:50:51;96759.44;;;8.08;100.00
3796;BME280;1913;50.660;7.834;2023-04-28T04:53:16;96756.19;;;8.06;100.00
3796;BME280;1913;50.660;7.834;2023-04-28T04:55:42;96763.44;;;8.10;100.00
3796;BME280;1913;50.660;7.834;2023-04-28T04:58:07;96756.41;;;8.04;100.00
3796;BME280;1913;50.660;7.834;2023-04-28T05:00:33;96754.19;;;8.14;100.00
3796;BME280;1913;50.660;7.834;2023-04-28T05:02:58;96746.34;;;8.08;100.00
3796;BME280;1913;50.660;7.834;2023-04-28T05:05:24;96748.56;;;8.04;100.00
3796;BME280;1913;50.660;7.834;2023-04-28T05:07:50;96753.38;;;8.07;100.00
3796;BME280;1913;50.660;7.834;2023-04-28T05:10:15;96749.50;;;7.97;100.00
3796;BME280;1913;50.660;7.834;2023-04-28T05:12:41;96746.31;;;8.01;100.00
3796;BME280;1913;50.660;7.834;2023-04-28T05:15:06;96747.31;;;8.00;100.00
3796;BME280;1913;50.660;7.834;2023-04-28T05:17:33;96739.44;;;8.00;100.00
3796;BME280;1913;50.660;7.834;2023-04-28T05:19:58;96746.31;;;8.01;100.00
3796;BME280;1913;50.660;7.834;2023-04-28T05:22:24;96747.56;;;8.12;100.00
3796;BME280;1913;50.660;7.834;2023-04-28T05:24:50;96753.16;;;8.02;100.00
3796;BME280;1913;50.660;7.834;2023-04-28T05:27:16;96751.34;;;8.03;100.00
3796;BME280;1913;50.660;7.834;2023-04-28T05:29:42;96746.13;;;8.09;100.00
3796;BME280;1913;50.660;7.834;2023-04-28T05:32:07;96756.19;;;8.06;100.00
3796;BME280;1913;50.660;7.834;2023-04-28T05:34:33;96751.16;;;8.04;100.00
3796;BME280;1913;50.660;7.834;2023-04-28T05:36:59;96744.09;;;7.98;100.00
3796;BME280;1913;50.660;7.834;2023-04-28T05:39:25;96757.00;;;8.06;100.00
3796;BME280;1913;50.660;7.834;2023-04-28T05:41:50;96758.81;;;8.06;100.00
3796;BME280;1913;50.660;7.834;2023-04-28T05:44:16;96770.06;;;8.00;100.00
3796;BME280;1913;50.660;7.834;2023-04-28T05:46:41;96759.41;;;8.01;100.00
3796;BME280;1913;50.660;7.834;2023-04-28T05:49:08;96770.06;;;8.06;100.00
3796;BME280;1913;50.660;7.834;2023-04-28T05:51:33;96782.97;;;8.01;100.00
3796;BME280;1913;50.660;7.834;2023-04-28T05:53:59;96789.41;;;8.05;100.00
3796;BME280;1913;50.660;7.834;2023-04-28T05:56:24;96786.00;;;8.05;100.00
3796;BME280;1913;50.660;7.834;2023-04-28T05:58:50;96781.13;;;8.02;100.00
3796;BME280;1913;50.660;7.834;2023-04-28T06:01:16;96778.13;;;8.05;100.00
3796;BME280;1913;50.660;7.834;2023-04-28T06:03:41;96772.50;;;8.01;100.00
3796;BME280;1913;50.660;7.834;2023-04-28T06:06:08;96773.28;;;8.02;100.00
3796;BME280;1913;50.660;7.834;2023-04-28T06:08:33;96772.06;;;7.98;100.00
3796;BME280;1913;50.660;7.834;2023-04-28T06:10:59;96755.38;;;7.99;100.00
3796;BME280;1913;50.660;7.834;2023-04-28T06:13:25;96757.59;;;8.02;100.00
3796;BME280;1913;50.660;7.834;2023-04-28T06:15:50;96757.78;;;7.94;100.00
3796;BME280;1913;50.660;7.834;2023-04-28T06:18:15;96753.56;;;7.99;100.00
3796;BME280;1913;50.660;7.834;2023-04-28T06:20:41;96750.34;;;8.04;100.00
3796;BME280;1913;50.660;7.834;2023-04-28T06:23:07;96757.19;;;7.98;100.00
3796;BME280;1913;50.660;7.834;2023-04-28T06:25:34;96738.06;;;7.98;100.00
3796;BME280;1913;50.660;7.834;2023-04-28T06:28:00;96745.94;;;8.04;100.00
3796;BME280;1913;50.660;7.834;2023-04-28T06:30:26;96753.94;;;7.96;100.00
3796;BME280;1913;50.660;7.834;2023-04-28T06:32:51;96743.44;;;7.89;100.00
3796;BME280;1913;50.660;7.834;2023-04-28T06:35:17;96740.41;;;7.86;100.00
3796;BME280;1913;50.660;7.834;2023-04-28T06:37:42;96736.78;;;7.80;100.00
3796;BME280;1913;50.660;7.834;2023-04-28T06:40:09;96744.59;;;7.74;100.00
3796;BME280;1913;50.660;7.834;2023-04-28T06:42:34;96736.97;;;7.79;100.00
3796;BME280;1913;50.660;7.834;2023-04-28T06:45:00;96733.53;;;7.78;100.00
3796;BME280;1913;50.660;7.834;2023-04-28T06:47:25;96736.97;;;7.79;100.00
3796;BME280;1913;50.660;7.834;2023-04-28T06:49:51;96749.66;;;7.82;100.00
3796;BME280;1913;50.660;7.834;2023-04-28T06:52:16;96721.91;;;7.81;100.00
3796;BME280;1913;50.660;7.834;2023-04-28T06:54:42;96722.94;;;7.86;100.00
3796;BME280;1913;50.660;7.834;2023-04-28T06:57:07;96720.53;;;7.91;100.00
3796;BME280;1913;50.660;7.834;2023-04-28T06:59:33;96725.53;;;7.93;100.00
3796;BME280;1913;50.660;7.834;2023-04-28T07:01:59;96726.56;;;7.92;100.00
3796;BME280;1913;50.660;7.834;2023-04-28T07:04:24;96735.63;;;7.96;100.00
3796;BME280;1913;50.660;7.834;2023-04-28T07:06:50;96740.69;;;7.98;100.00
3796;BME280;1913;50.660;7.834;2023-04-28T07:09:16;96733.00;;;7.96;100.00
3796;BME280;1913;50.660;7.834;2023-04-28T07:11:42;96730.38;;;7.96;100.00
3796;BME280;1913;50.660;7.834;2023-04-28T07:14:08;96738.88;;;7.98;100.00
3796;BME280;1913;50.660;7.834;2023-04-28T07:16:33;96739.88;;;8.04;100.00
3796;BME280;1913;50.660;7.834;2023-04-28T07:18:59;96734.84;;;8.02;100.00
3796;BME280;1913;50.660;7.834;2023-04-28T07:21:24;96732.84;;;8.11;100.00
3796;BME280;1913;50.660;7.834;2023-04-28T07:23:50;96734.06;;;8.22;100.00
3796;BME280;1913;50.660;7.834;2023-04-28T07:26:15;96726.25;;;8.35;100.00
3796;BME280;1913;50.660;7.834;2023-04-28T07:28:42;96727.72;;;8.44;100.00
3796;BME280;1913;50.660;7.834;2023-04-28T07:31:08;96734.34;;;8.53;100.00
3796;BME280;1913;50.660;7.834;2023-04-28T07:33:33;96744.44;;;8.56;100.00
3796;BME280;1913;50.660;7.834;2023-04-28T07:35:59;96742.84;;;8.62;100.00
3796;BME280;1913;50.660;7.834;2023-04-28T07:38:24;96738.41;;;8.69;100.00
3796;BME280;1913;50.660;7.834;2023-04-28T07:40:49;96743.84;;;8.74;100.00
3796;BME280;1913;50.660;7.834;2023-04-28T07:43:15;96735.38;;;8.85;100.00
3796;BME280;1913;50.660;7.834;2023-04-28T07:45:41;96730.34;;;8.97;100.00
3796;BME280;1913;50.660;7.834;2023-04-28T07:48:06;96739.59;;;9.06;100.00
3796;BME280;1913;50.660;7.834;2023-04-28T07:50:33;96730.69;;;9.21;100.00
3796;BME280;1913;50.660;7.834;2023-04-28T07:52:58;96741.56;;;9.31;100.00
3796;BME280;1913;50.660;7.834;2023-04-28T07:55:24;96748.22;;;9.40;100.00
3796;BME280;1913;50.660;7.834;2023-04-28T07:57:49;96749.44;;;9.38;100.00
3796;BME280;1913;50.660;7.834;2023-04-28T08:00:15;96755.69;;;9.43;100.00
3796;BME280;1913;50.660;7.834;2023-04-28T08:02:42;96752.69;;;9.33;100.00
3796;BME280;1913;50.660;7.834;2023-04-28T08:05:07;96756.69;;;9.35;100.00
3796;BME280;1913;50.660;7.834;2023-04-28T08:07:34;96750.03;;;9.46;100.00
3796;BME280;1913;50.660;7.834;2023-04-28T08:09:59;96747.81;;;9.50;100.00
3796;BME280;1913;50.660;7.834;2023-04-28T08:12:26;96749.16;;;9.66;100.00
3796;BME280;1913;50.660;7.834;2023-04-28T08:14:51;96758.38;;;9.81;100.00
3796;BME280;1913;50.660;7.834;2023-04-28T08:17:17;96759.81;;;9.71;100.00
3796;BME280;1913;50.660;7.834;2023-04-28T08:19:42;96756.38;;;9.77;100.00
3796;BME280;1913;50.660;7.834;2023-04-28T08:22:11;96754.16;;;9.74;100.00
3796;BME280;1913;50.660;7.834;2023-04-28T08:24:36;96755.16;;;9.79;100.00
3796;BME280;1913;50.660;7.834;2023-04-28T08:27:02;96762.03;;;9.80;100.00
3796;BME280;1913;50.660;7.834;2023-04-28T08:29:29;96750.25;;;9.96;100.00
3796;BME280;1913;50.660;7.834;2023-04-28T08:31:55;96766.19;;;9.95;100.00
3796;BME280;1913;50.660;7.834;2023-04-28T08:34:20;96763.13;;;10.04;100.00
3796;BME280;1913;50.660;7.834;2023-04-28T08:36:46;96771.97;;;10.17;100.00
3796;BME280;1913;50.660;7.834;2023-04-28T08:39:11;96784.13;;;10.11;100.00
3796;BME280;1913;50.660;7.834;2023-04-28T08:41:37;96787.72;;;10.17;100.00
3796;BME280;1913;50.660;7.834;2023-04-28T08:44:09;96779.84;;;10.17;100.00
3796;BME280;1913;50.660;7.834;2023-04-28T08:46:39;96785.09;;;10.17;100.00
3796;BME280;1913;50.660;7.834;2023-04-28T08:49:13;96784.47;;;10.21;100.00
3796;BME280;1913;50.660;7.834;2023-04-28T08:51:55;96777.41;;;10.28;100.00
3796;BME280;1913;50.660;7.834;2023-04-28T08:54:22;96775.63;;;10.54;100.00
3796;BME280;1913;50.660;7.834;2023-04-28T08:56:48;96789.84;;;10.78;100.00
3796;BME280;1913;50.660;7.834;2023-04-28T08:59:14;96794.50;;;11.01;100.00
3796;BME280;1913;50.660;7.834;2023-04-28T09:01:40;96783.09;;;11.14;100.00
3796;BME280;1913;50.660;7.834;2023-04-28T09:04:05;96783.75;;;11.27;100.00
3796;BME280;1913;50.660;7.834;2023-04-28T09:06:35;96782.03;;;11.40;100.00
3796;BME280;1913;50.660;7.834;2023-04-28T09:09:24;96783.88;;;11.39;100.00
3796;BME280;1913;50.660;7.834;2023-04-28T09:14:16;96780.31;;;11.70;100.00
3796;BME280;1913;50.660;7.834;2023-04-28T09:16:41;96780.16;;;12.20;100.00
3796;BME280;1913;50.660;7.834;2023-04-28T09:19:07;96782.06;;;12.74;100.00
3796;BME280;1913;50.660;7.834;2023-04-28T09:21:45;96776.09;;;13.32;100.00
3796;BME280;1913;50.660;7.834;2023-04-28T09:24:33;96778.59;;;13.74;100.00
3796;BME280;1913;50.660;7.834;2023-04-28T09:27:01;96781.25;;;14.14;100.00
3796;BME280;1913;50.660;7.834;2023-04-28T09:29:28;96773.84;;;14.28;100.00
3796;BME280;1913;50.660;7.834;2023-04-28T09:31:54;96778.25;;;14.51;100.00
3796;BME280;1913;50.660;7.834;2023-04-28T09:34:53;96778.63;;;14.71;100.00
3796;BME280;1913;50.660;7.834;2023-04-28T09:37:22;96773.63;;;14.58;100.00
3796;BME280;1913;50.660;7.834;2023-04-28T09:39:50;96775.72;;;14.44;100.00
3796;BME280;1913;50.660;7.834;2023-04-28T09:42:42;96778.25;;;14.10;100.00
3796;BME280;1913;50.660;7.834;2023-04-28T09:45:12;96774.31;;;13.73;100.00
3796;BME280;1913;50.660;7.834;2023-04-28T09:47:41;96766.09;;;13.46;100.00
3796;BME280;1913;50.660;7.834;2023-04-28T09:50:08;96753.19;;;13.73;100.00
3796;BME280;1913;50.660;7.834;2023-04-28T09:52:36;96750.19;;;14.21;100.00
3796;BME280;1913;50.660;7.834;2023-04-28T09:55:04;96746.25;;;14.98;100.00
3796;BME280;1913;50.660;7.834;2023-04-28T09:57:32;96746.75;;;15.50;100.00
3796;BME280;1913;50.660;7.834;2023-04-28T09:59:58;96745.09;;;15.44;100.00
3796;BME280;1913;50.660;7.834;2023-04-28T10:02:25;96746.19;;;15.48;100.00
3796;BME280;1913;50.660;7.834;2023-04-28T10:04:51;96736.47;;;15.71;100.00
3796;BME280;1913;50.660;7.834;2023-04-28T10:07:19;96742.94;;;16.29;100.00
3796;BME280;1913;50.660;7.834;2023-04-28T10:09:51;96740.41;;;16.93;100.00
3796;BME280;1913;50.660;7.834;2023-04-28T10:12:21;96746.25;;;16.95;100.00
3796;BME280;1913;50.660;7.834;2023-04-28T10:14:48;96749.38;;;16.11;100.00
3796;BME280;1913;50.660;7.834;2023-04-28T10:17:21;96754.63;;;15.45;100.00
3796;BME280;1913;50.660;7.834;2023-04-28T10:19:51;96754.84;;;15.05;100.00
3796;BME280;1913;50.660;7.834;2023-04-28T10:27:44;96741.41;;;14.32;100.00
3796;BME280;1913;50.660;7.834;2023-04-28T10:30:13;96746.97;;;14.48;100.00
3796;BME280;1913;50.660;7.834;2023-04-28T10:32:40;96747.69;;;14.43;100.00
3796;BME280;1913;50.660;7.834;2023-04-28T10:43:01;96736.31;;;15.05;100.00
3796;BME280;1913;50.660;7.834;2023-04-28T10:48:19;96724.50;;;16.12;100.00
3796;BME280;1913;50.660;7.834;2023-04-28T10:56:06;96722.28;;;16.04;100.00
3796;BME280;1913;50.660;7.834;2023-04-28T10:58:33;96724.00;;;15.93;100.00
3796;BME280;1913;50.660;7.834;2023-04-28T11:06:32;96726.31;;;15.46;100.00
3796;BME280;1913;50.660;7.834;2023-04-28T11:09:00;96716.28;;;15.48;100.00
3796;BME280;1913;50.660;7.834;2023-04-28T11:19:28;96711.44;;;16.06;100.00
3796;BME280;1913;50.660;7.834;2023-04-28T11:21:58;96718.69;;;16.15;100.00
3796;BME280;1913;50.660;7.834;2023-04-28T11:24:26;96709.00;;;16.04;100.00
3796;BME280;1913;50.660;7.834;2023-04-28T11:26:53;96715.75;;;16.12;100.00
3796;BME280;1913;50.660;7.834;2023-04-28T11:29:33;96716.44;;;16.02;100.00
3796;BME280;1913;50.660;7.834;2023-04-28T11:32:03;96714.50;;;16.19;100.00
3796;BME280;1913;50.660;7.834;2023-04-28T11:34:29;96720.13;;;15.79;100.00
3796;BME280;1913;50.660;7.834;2023-04-28T11:36:55;96725.25;;;15.86;100.00
3796;BME280;1913;50.660;7.834;2023-04-28T11:39:28;96719.44;;;15.89;100.00
3796;BME280;1913;50.660;7.834;2023-04-28T11:41:55;96724.28;;;15.70;100.00
3796;BME280;1913;50.660;7.834;2023-04-28T11:44:23;96721.19;;;15.78;100.00
3796;BME280;1913;50.660;7.834;2023-04-28T11:46:55;96719.94;;;15.86;100.00
3796;BME280;1913;50.660;7.834;2023-04-28T11:49:47;96721.66;;;15.97;100.00
3796;BME280;1913;50.660;7.834;2023-04-28T11:52:13;96725.31;;;15.91;100.00
3796;BME280;1913;50.660;7.834;2023-04-28T11:54:39;96721.56;;;15.87;100.00
3796;BME280;1913;50.660;7.834;2023-04-28T11:57:18;96722.91;;;15.67;100.00
3796;BME280;1913;50.660;7.834;2023-04-28T11:59:44;96720.19;;;15.84;100.00
3796;BME280;1913;50.660;7.834;2023-04-28T12:02:10;96717.34;;;16.13;100.00
3796;BME280;1913;50.660;7.834;2023-04-28T12:07:17;96718.28;;;18.46;100.00
3796;BME280;1913;50.660;7.834;2023-04-28T12:10:10;96719.94;;;19.03;100.00
3796;BME280;1913;50.660;7.834;2023-04-28T12:12:36;96726.31;;;19.32;100.00
3796;BME280;1913;50.660;7.834;2023-04-28T12:15:04;96715.63;;;19.43;100.00
3796;BME280;1913;50.660;7.834;2023-04-28T12:17:31;96719.63;;;19.35;100.00
3796;BME280;1913;50.660;7.834;2023-04-28T12:20:00;96718.31;;;19.27;100.00
3796;BME280;1913;50.660;7.834;2023-04-28T12:22:26;96720.47;;;18.95;100.00
3796;BME280;1913;50.660;7.834;2023-04-28T12:25:05;96724.72;;;18.96;100.00
3796;BME280;1913;50.660;7.834;2023-04-28T12:27:33;96724.16;;;18.48;100.00
3796;BME280;1913;50.660;7.834;2023-04-28T12:29:59;96719.56;;;18.28;100.00
3796;BME280;1913;50.660;7.834;2023-04-28T12:32:40;96712.66;;;18.32;100.00
3796;BME280;1913;50.660;7.834;2023-04-28T12:35:08;96714.28;;;18.33;100.00
3796;BME280;1913;50.660;7.834;2023-04-28T12:37:33;96709.53;;;19.17;100.00
3796;BME280;1913;50.660;7.834;2023-04-28T12:39:59;96703.19;;;20.03;100.00
3796;BME280;1913;50.660;7.834;2023-04-28T12:42:24;96700.66;;;20.66;100.00
3796;BME280;1913;50.660;7.834;2023-04-28T12:44:50;96707.69;;;21.49;100.00
3796;BME280;1913;50.660;7.834;2023-04-28T12:47:16;96706.28;;;21.81;100.00
3796;BME280;1913;50.660;7.834;2023-04-28T12:49:50;96706.28;;;22.24;100.00
3796;BME280;1913;50.660;7.834;2023-04-28T12:52:18;96697.31;;;22.53;100.00
3796;BME280;1913;50.660;7.834;2023-04-28T12:54:44;96700.41;;;22.60;100.00
3796;BME280;1913;50.660;7.834;2023-04-28T12:57:16;96703.59;;;22.24;100.00
3796;BME280;1913;50.660;7.834;2023-04-28T12:59:42;96704.53;;;21.90;100.00
3796;BME280;1913;50.660;7.834;2023-04-28T13:02:08;96703.09;;;21.98;100.00
3796;BME280;1913;50.660;7.834;2023-04-28T13:04:34;96708.22;;;22.18;100.00
3796;BME280;1913;50.660;7.834;2023-04-28T13:07:00;96702.28;;;21.55;100.00
3796;BME280;1913;50.660;7.834;2023-04-28T13:09:25;96712.19;;;21.78;100.00
3796;BME280;1913;50.660;7.834;2023-04-28T13:11:51;96708.72;;;21.54;100.00
3796;BME280;1913;50.660;7.834;2023-04-28T13:14:20;96705.28;;;21.72;100.00
3796;BME280;1913;50.660;7.834;2023-04-28T13:16:46;96700.63;;;21.59;100.00
3796;BME280;1913;50.660;7.834;2023-04-28T13:19:12;96697.38;;;21.38;100.00
3796;BME280;1913;50.660;7.834;2023-04-28T13:21:41;96701.53;;;21.20;100.00
3796;BME280;1913;50.660;7.834;2023-04-28T13:24:07;96703.78;;;21.42;100.00
3796;BME280;1913;50.660;7.834;2023-04-28T13:26:33;96701.03;;;21.47;100.00
3796;BME280;1913;50.660;7.834;2023-04-28T13:28:59;96691.03;;;21.28;100.00
3796;BME280;1913;50.660;7.834;2023-04-28T13:31:26;96694.44;;;21.39;100.00
3796;BME280;1913;50.660;7.834;2023-04-28T13:33:52;96682.34;;;21.90;100.00
3796;BME280;1913;50.660;7.834;2023-04-28T13:36:18;96674.88;;;22.30;100.00
3796;BME280;1913;50.660;7.834;2023-04-28T13:38:43;96659.91;;;23.13;100.00
3796;BME280;1913;50.660;7.834;2023-04-28T13:41:15;96648.19;;;23.64;84.20
3796;BME280;1913;50.660;7.834;2023-04-28T13:43:42;96655.13;;;23.10;85.38
3796;BME280;1913;50.660;7.834;2023-04-28T13:46:07;96655.47;;;22.57;91.40
3796;BME280;1913;50.660;7.834;2023-04-28T13:48:34;96660.06;;;21.51;99.97
3796;BME280;1913;50.660;7.834;2023-04-28T13:51:01;96665.16;;;20.95;100.00
3796;BME280;1913;50.660;7.834;2023-04-28T13:53:27;96655.22;;;21.29;100.00
3796;BME280;1913;50.660;7.834;2023-04-28T13:55:52;96652.16;;;21.65;100.00